Time;durP1;ratioP1;P1;durP2;ratioP2;P2;SDS_P1;SDS_P2;PMS_P1;PMS_P2;Temp;Humidity;BMP_temperature;BMP_pressure;BME280_temperature;BME280_humidity;BME280_pressure;Samples;Min_cycle;Max_cycle;Signal;HPM_P1;HPM_P2
2022/04/30 00:00:21;;;;;;;6.20;3.55;;;;;;;10.97;48.03;102820.00;4948303;28;124110;-76
2022/04/30 00:02:48;;;;;;;5.63;3.42;;;;;;;10.95;48.00;102827.13;4930839;28;121461;-76
2022/04/30 00:05:17;;;;;;;7.97;3.72;;;;;;;10.93;48.11;102826.25;4936067;28;111131;-77
2022/04/30 00:07:44;;;;;;;8.10;3.75;;;;;;;10.91;48.22;102820.13;4934230;28;109970;-76
2022/04/30 00:10:12;;;;;;;6.60;3.40;;;;;;;10.90;48.27;102818.34;4951514;28;124372;-76
2022/04/30 00:12:40;;;;;;;9.48;3.50;;;;;;;10.87;48.30;102813.09;4949632;28;123676;-76
2022/04/30 00:15:08;;;;;;;6.55;3.60;;;;;;;10.86;48.47;102816.63;4917573;28;108547;-75
2022/04/30 00:17:36;;;;;;;6.53;3.78;;;;;;;10.83;48.35;102817.56;4949242;28;108690;-75
2022/04/30 00:20:07;;;;;;;7.15;3.80;;;;;;;10.81;48.63;102816.72;4921226;28;124206;-76
2022/04/30 00:22:35;;;;;;;7.75;3.60;;;;;;;10.80;48.62;102817.59;4936030;28;122636;-76
2022/04/30 00:25:02;;;;;;;8.93;3.60;;;;;;;10.79;48.79;102815.84;4934995;28;108889;-74
2022/04/30 00:27:31;;;;;;;10.90;3.58;;;;;;;10.77;48.49;102820.28;4940724;28;110316;-76
2022/04/30 00:29:58;;;;;;;7.65;3.47;;;;;;;10.75;48.43;102818.56;4952302;28;124733;-77
2022/04/30 00:32:26;;;;;;;8.27;3.25;;;;;;;10.73;48.69;102815.06;4949902;28;122804;-75
2022/04/30 00:34:53;;;;;;;8.57;3.55;;;;;;;10.69;48.93;102814.22;4933613;28;108932;-75
2022/04/30 00:37:20;;;;;;;8.63;3.33;;;;;;;10.66;48.81;102815.16;4934796;28;109971;-75
2022/04/30 00:39:47;;;;;;;7.30;3.83;;;;;;;10.65;48.58;102813.38;4934842;28;123746;-76
2022/04/30 00:42:15;;;;;;;9.88;3.17;;;;;;;10.63;48.60;102809.88;4956293;28;124482;-74
2022/04/30 00:44:43;;;;;;;6.28;3.35;;;;;;;10.60;48.93;102812.56;4946382;28;109190;-76
2022/04/30 00:47:15;;;;;;;7.65;3.38;;;;;;;10.57;48.97;102809.97;4943926;28;108447;-75
2022/04/30 00:49:42;;;;;;;6.90;3.30;;;;;;;10.55;48.78;102813.53;4954926;28;123807;-75
2022/04/30 00:52:15;;;;;;;7.38;3.45;;;;;;;10.52;48.89;102801.22;4954218;28;123711;-76
2022/04/30 00:54:47;;;;;;;7.55;3.20;;;;;;;10.49;48.95;102807.44;4938808;28;110398;-74
2022/04/30 00:57:19;;;;;;;7.43;3.33;;;;;;;10.47;48.87;102800.38;4953469;28;109675;-75
2022/04/30 00:59:50;;;;;;;7.75;3.80;;;;;;;10.45;48.90;102799.53;4936383;28;124235;-75
2022/04/30 01:02:18;;;;;;;5.22;3.10;;;;;;;10.41;49.39;102792.53;4932455;28;124085;-75
2022/04/30 01:04:49;;;;;;;10.13;3.47;;;;;;;10.37;49.41;102796.13;4942563;28;109929;-74
2022/04/30 01:07:17;;;;;;;7.78;3.22;;;;;;;10.33;49.34;102785.53;4941508;28;108287;-76
2022/04/30 01:09:46;;;;;;;6.63;3.65;;;;;;;10.31;49.31;102792.63;4941587;28;124155;-76
2022/04/30 01:12:14;;;;;;;6.72;3.22;;;;;;;10.27;49.39;102785.59;4935570;28;125529;-75
2022/04/30 01:14:42;;;;;;;6.43;3.53;;;;;;;10.26;49.42;102789.13;4917065;28;109118;-77
2022/04/30 01:17:10;;;;;;;8.93;3.63;;;;;;;10.25;49.33;102787.41;4954881;28;108514;-76
2022/04/30 01:19:41;;;;;;;8.10;3.67;;;;;;;10.23;49.66;102783.03;4958123;28;124145;-75
2022/04/30 01:22:21;;;;;;;5.45;3.35;;;;;;;10.19;49.66;102776.88;4953212;28;123200;-77
2022/04/30 01:24:49;;;;;;;7.00;4.00;;;;;;;10.18;49.54;102785.72;4936602;28;110922;-77
2022/04/30 01:27:17;;;;;;;10.10;3.83;;;;;;;10.15;49.85;102780.44;4938878;28;109524;-76
2022/04/30 01:29:45;;;;;;;9.57;3.63;;;;;;;10.14;50.21;102784.00;4937174;28;124064;-76
2022/04/30 01:37:43;;;;;;;9.63;4.05;;;;;;;10.08;49.99;102786.72;4945690;28;109479;-75
2022/04/30 01:40:12;;;;;;;12.38;4.18;;;;;;;10.05;50.03;102779.69;4940710;28;124157;-75
2022/04/30 01:42:47;;;;;;;8.60;4.20;;;;;;;10.03;50.33;102775.31;4938975;28;123866;-76
2022/04/30 01:45:18;;;;;;;10.85;4.40;;;;;;;10.02;50.17;102776.19;4938819;28;110590;-75
2022/04/30 01:47:46;;;;;;;10.38;4.18;;;;;;;10.01;50.20;102777.97;4942004;28;110304;-76
2022/04/30 01:50:13;;;;;;;8.13;3.95;;;;;;;10.01;50.46;102777.09;4939796;28;124316;-76
2022/04/30 01:52:40;;;;;;;8.00;4.03;;;;;;;10.00;50.45;102775.34;4933109;28;123554;-75
2022/04/30 01:55:10;;;;;;;8.48;3.90;;;;;;;10.00;50.52;102770.03;4953852;28;109089;-76
2022/04/30 01:57:41;;;;;;;10.55;4.00;;;;;;;9.97;50.31;102770.97;4933433;28;109402;-76
2022/04/30 02:00:10;;;;;;;10.00;4.03;;;;;;;9.93;50.53;102770.13;4934847;28;125108;-75
2022/04/30 02:02:46;;;;;;;9.90;4.30;;;;;;;9.90;50.41;102758.69;4953525;28;123642;-76
2022/04/30 02:05:14;;;;;;;9.10;4.32;;;;;;;9.89;50.38;102756.94;4939787;28;110515;-77
2022/04/30 02:07:49;;;;;;;9.52;3.95;;;;;;;9.86;50.63;102760.50;4938338;28;108286;-77
2022/04/30 02:10:18;;;;;;;8.98;3.83;;;;;;;9.86;50.41;102751.69;4957168;28;123153;-75
2022/04/30 02:12:46;;;;;;;8.25;3.92;;;;;;;9.85;50.26;102761.41;4955671;28;123112;-76
2022/04/30 02:15:14;;;;;;;8.30;3.83;;;;;;;9.83;50.48;102757.91;4936324;28;109028;-76
2022/04/30 02:17:42;;;;;;;7.03;3.70;;;;;;;9.81;50.31;102754.34;4934948;28;109003;-78
2022/04/30 02:23:11;;;;;;;6.70;3.80;;;;;;;9.75;50.23;102754.44;4911977;28;124470;-76
2022/04/30 02:25:39;;;;;;;7.57;3.58;;;;;;;9.70;50.37;102750.94;4943948;28;108762;-75
2022/04/30 02:28:08;;;;;;;8.45;3.53;;;;;;;9.66;50.40;102751.88;4953853;28;107986;-75
2022/04/30 02:30:37;;;;;;;6.70;3.60;;;;;;;9.63;50.04;102760.75;4950137;28;123002;-75
2022/04/30 02:33:07;;;;;;;8.18;3.63;;;;;;;9.59;50.45;102751.09;4936994;28;124407;-74
2022/04/30 02:35:37;;;;;;;6.75;3.60;;;;;;;9.54;50.50;102751.13;4953997;28;109639;-75
2022/04/30 02:38:08;;;;;;;7.85;3.80;;;;;;;9.50;50.07;102749.41;4964825;28;109708;-76
2022/04/30 02:40:36;;;;;;;6.45;3.42;;;;;;;9.45;50.15;102751.19;4933125;28;124867;-74
2022/04/30 02:43:06;;;;;;;4.95;3.20;;;;;;;9.39;50.44;102740.69;4938639;28;123682;-75
2022/04/30 02:45:38;;;;;;;6.82;3.50;;;;;;;9.35;50.04;102749.56;4938384;28;109384;-75
2022/04/30 02:48:07;;;;;;;9.20;4.05;;;;;;;9.33;50.51;102751.34;4924043;28;108022;-76
2022/04/30 02:50:36;;;;;;;8.93;3.85;;;;;;;9.31;50.39;102750.47;4938236;28;124562;-76
2022/04/30 02:53:03;;;;;;;7.25;3.75;;;;;;;9.29;50.53;102744.31;4934571;28;123850;-75
2022/04/30 02:55:31;;;;;;;8.93;3.58;;;;;;;9.26;50.61;102745.22;4918630;28;109213;-76
2022/04/30 03:00:51;;;;;;;10.18;3.60;;;;;;;9.20;50.88;102741.75;4934766;28;124302;-74
2022/04/30 03:03:24;;;;;;;6.07;3.67;;;;;;;9.18;50.50;102740.91;4938398;28;124453;-74
2022/04/30 03:05:53;;;;;;;9.90;3.80;;;;;;;9.15;50.37;102732.09;4950794;28;108792;-76
2022/04/30 03:08:23;;;;;;;8.30;4.10;;;;;;;9.13;50.62;102733.84;4937224;28;108562;-75
2022/04/30 03:10:53;;;;;;;7.97;4.43;;;;;;;9.10;51.02;102733.91;4922324;28;123808;-76
2022/04/30 03:13:22;;;;;;;7.35;3.72;;;;;;;9.05;50.80;102730.41;4953323;28;124553;-76
2022/04/30 03:15:53;;;;;;;8.80;3.70;;;;;;;9.02;50.54;102730.44;4941651;28;109081;-76
2022/04/30 03:23:55;;;;;;;8.07;3.85;;;;;;;8.90;50.65;102722.63;4932869;28;123891;-76
2022/04/30 03:26:26;;;;;;;9.13;4.05;;;;;;;8.86;50.67;102728.81;4943839;28;110779;-75
2022/04/30 03:28:54;;;;;;;11.10;4.13;;;;;;;8.82;50.86;102729.72;4927359;28;109426;-77
2022/04/30 03:31:21;;;;;;;7.53;4.22;;;;;;;8.77;50.79;102725.34;4943516;28;123904;-75
2022/04/30 03:33:50;;;;;;;7.93;4.05;;;;;;;8.75;50.93;102720.97;4943276;28;123468;-76
2022/04/30 03:36:20;;;;;;;9.05;3.78;;;;;;;8.71;51.09;102720.09;4951240;28;109951;-76
2022/04/30 03:38:47;;;;;;;8.35;4.22;;;;;;;8.68;50.69;102717.50;4950184;28;108810;-77
2022/04/30 03:41:17;;;;;;;9.60;4.00;;;;;;;8.65;50.82;102720.16;4945287;28;123528;-75
2022/04/30 03:43:44;;;;;;;8.45;4.25;;;;;;;8.62;51.21;102729.84;4934389;28;123780;-76
2022/04/30 03:46:12;;;;;;;11.32;4.50;;;;;;;8.57;51.17;102722.84;4959247;28;108947;-75
2022/04/30 03:48:39;;;;;;;9.18;4.47;;;;;;;8.55;51.35;102718.44;4941847;28;108971;-77
2022/04/30 03:51:06;;;;;;;7.28;4.70;;;;;;;8.53;51.17;102725.50;4942773;28;124889;-77
2022/04/30 03:53:33;;;;;;;8.27;4.20;;;;;;;8.51;51.30;102722.00;4955192;28;123798;-76
2022/04/30 03:56:01;;;;;;;7.22;4.03;;;;;;;8.51;51.48;102724.63;4949025;28;109882;-78
2022/04/30 03:58:28;;;;;;;9.15;4.43;;;;;;;8.51;51.45;102716.72;4962544;28;108947;-77
2022/04/30 04:00:55;;;;;;;9.02;4.35;;;;;;;8.51;51.41;102722.00;4920041;28;125169;-77
2022/04/30 04:03:22;;;;;;;9.70;4.30;;;;;;;8.52;51.62;102718.47;4945463;28;124602;-77
2022/04/30 04:05:50;;;;;;;9.05;5.07;;;;;;;8.51;51.61;102711.44;4938838;28;109713;-77
2022/04/30 04:08:20;;;;;;;9.85;4.40;;;;;;;8.50;51.44;102721.13;4960014;28;107966;-77
2022/04/30 04:10:48;;;;;;;11.23;4.63;;;;;;;8.50;51.62;102714.97;4940472;28;123365;-76
2022/04/30 04:18:51;;;;;;;11.57;4.20;;;;;;;8.42;51.06;102722.03;4956702;28;109798;-77
2022/04/30 04:21:22;;;;;;;7.07;4.28;;;;;;;8.37;51.56;102720.28;4945451;28;123450;-77
2022/04/30 04:26:35;;;;;;;12.68;4.53;;;;;;;8.36;51.75;102718.53;4951004;28;109170;-75
2022/04/30 04:29:02;;;;;;;11.85;4.82;;;;;;;8.35;51.73;102716.78;4957234;28;109234;-74
2022/04/30 04:31:29;;;;;;;12.85;4.60;;;;;;;8.36;51.60;102723.81;4942975;28;125608;-77
2022/04/30 04:33:57;;;;;;;9.45;4.38;;;;;;;8.38;51.64;102729.97;4943365;28;123917;-75
2022/04/30 04:36:24;;;;;;;9.68;4.57;;;;;;;8.39;52.08;102734.34;4961075;28;107478;-76
2022/04/30 04:38:51;;;;;;;9.70;4.70;;;;;;;8.43;52.18;102731.75;4954834;28;108083;-77
2022/04/30 04:41:18;;;;;;;13.88;5.35;;;;;;;8.45;51.89;102729.97;4960056;28;124698;-77
2022/04/30 04:43:45;;;;;;;9.80;4.65;;;;;;;8.46;51.87;102734.38;4923715;28;124846;-77
2022/04/30 04:46:13;;;;;;;9.63;5.10;;;;;;;8.49;52.43;102736.97;4947684;28;109603;-76
2022/04/30 04:48:42;;;;;;;10.23;5.15;;;;;;;8.52;52.08;102734.31;4958247;28;108234;-77
2022/04/30 04:51:09;;;;;;;41.22;7.18;;;;;;;8.55;52.42;102744.84;4940660;28;124346;-77
2022/04/30 04:53:36;;;;;;;40.00;6.78;;;;;;;8.56;52.05;102739.56;4941411;28;123758;-75
2022/04/30 04:56:04;;;;;;;32.22;7.28;;;;;;;8.60;52.10;102737.78;4953334;28;107742;-76
2022/04/30 04:58:31;;;;;;;18.48;5.68;;;;;;;8.64;52.27;102744.78;4957890;28;109201;-76
2022/04/30 05:00:58;;;;;;;19.42;5.35;;;;;;;8.66;52.25;102748.31;4940404;28;124104;-76
2022/04/30 05:03:25;;;;;;;23.83;6.50;;;;;;;8.71;52.26;102756.22;4941753;28;124146;-76
2022/04/30 05:05:52;;;;;;;12.13;5.20;;;;;;;8.74;52.26;102756.22;4940524;28;110465;-76
2022/04/30 05:08:20;;;;;;;15.73;5.35;;;;;;;8.79;52.36;102753.53;4937572;28;109696;-74
2022/04/30 05:10:47;;;;;;;9.13;4.78;;;;;;;8.82;52.40;102753.50;4939099;28;124552;-76
2022/04/30 05:13:14;;;;;;;10.70;5.47;;;;;;;8.85;52.44;102756.13;4936642;28;123865;-77
2022/04/30 05:15:41;;;;;;;9.55;5.43;;;;;;;8.87;52.50;102762.25;4940022;28;107551;-75
2022/04/30 05:18:08;;;;;;;12.35;6.32;;;;;;;8.89;52.32;102750.81;4940853;28;108933;-77
2022/04/30 05:20:36;;;;;;;12.90;5.30;;;;;;;8.92;52.70;102755.19;4936926;28;123582;-76
2022/04/30 05:23:10;;;;;;;9.88;5.20;;;;;;;8.94;52.61;102758.69;4940182;28;123781;-77
2022/04/30 05:25:40;;;;;;;9.88;5.55;;;;;;;8.96;52.60;102763.06;4939270;28;108863;-75
2022/04/30 05:28:08;;;;;;;13.15;5.68;;;;;;;9.00;52.95;102753.34;4940181;28;108956;-77
2022/04/30 05:30:36;;;;;;;10.23;5.65;;;;;;;9.03;53.03;102761.28;4950490;28;123097;-76
2022/04/30 05:33:03;;;;;;;11.15;5.53;;;;;;;9.09;52.83;102763.84;4919672;28;124288;-76
2022/04/30 05:35:31;;;;;;;10.27;5.43;;;;;;;9.12;53.16;102757.69;4936174;28;106871;-75
2022/04/30 05:37:59;;;;;;;14.50;6.13;;;;;;;9.18;53.14;102764.69;4950926;28;109813;-76
2022/04/30 05:40:26;;;;;;;12.93;5.60;;;;;;;9.21;53.01;102756.72;4952016;28;124259;-77
2022/04/30 05:42:53;;;;;;;13.18;6.20;;;;;;;9.25;53.28;102761.97;4934868;28;123715;-76
2022/04/30 05:45:20;;;;;;;10.80;5.55;;;;;;;9.31;53.17;102763.69;4937579;28;115425;-76
2022/04/30 05:47:47;;;;;;;13.95;6.28;;;;;;;9.37;53.29;102763.63;4939759;28;112809;-75
2022/04/30 05:50:14;;;;;;;9.77;5.50;;;;;;;9.43;53.38;102758.28;4948845;28;124850;-76
2022/04/30 05:52:41;;;;;;;13.70;6.13;;;;;;;9.49;53.25;102760.88;4934248;28;125405;-75
2022/04/30 05:55:09;;;;;;;11.10;5.93;;;;;;;9.59;53.34;102766.06;4934584;28;114547;-77
2022/04/30 05:57:36;;;;;;;11.32;5.88;;;;;;;9.64;53.39;102767.75;4929818;28;114040;-76
2022/04/30 06:00:04;;;;;;;9.57;5.80;;;;;;;9.71;53.57;102763.31;4928978;28;123889;-79
2022/04/30 06:02:31;;;;;;;11.43;6.00;;;;;;;9.79;53.75;102761.44;4937925;28;123877;-77
2022/04/30 06:04:58;;;;;;;10.38;5.47;;;;;;;9.86;53.92;102757.84;4931107;28;114978;-75
2022/04/30 06:07:25;;;;;;;11.02;5.57;;;;;;;9.94;53.69;102761.28;4928682;28;113752;-76
2022/04/30 06:09:52;;;;;;;9.00;5.38;;;;;;;10.02;53.59;102768.25;4947924;28;124151;-77
2022/04/30 06:12:19;;;;;;;10.88;6.05;;;;;;;10.10;53.71;102766.41;4931222;28;124500;-77
2022/04/30 06:14:47;;;;;;;11.05;5.88;;;;;;;10.18;53.52;102768.97;4931758;28;114665;-75
2022/04/30 06:17:14;;;;;;;11.20;6.03;;;;;;;10.26;53.69;102760.00;4917290;28;113705;-76
2022/04/30 06:19:41;;;;;;;12.38;5.60;;;;;;;10.36;53.95;102758.16;4929371;28;124045;-77
2022/04/30 06:22:08;;;;;;;14.13;5.93;;;;;;;10.46;53.89;102764.22;4946520;28;122644;-76
2022/04/30 06:24:35;;;;;;;12.70;5.22;;;;;;;10.55;53.90;102769.38;4930814;28;114872;-76
2022/04/30 06:27:03;;;;;;;13.43;5.80;;;;;;;10.64;53.92;102766.59;4933967;28;113851;-76
2022/04/30 06:29:30;;;;;;;10.43;5.00;;;;;;;10.76;53.69;102772.63;4949031;28;121867;-75
2022/04/30 06:31:57;;;;;;;8.38;4.78;;;;;;;10.85;53.59;102764.50;4937487;28;124608;-74
2022/04/30 06:34:24;;;;;;;9.43;5.20;;;;;;;10.97;53.62;102772.28;4938087;28;114639;-75
2022/04/30 06:36:51;;;;;;;10.10;5.25;;;;;;;11.07;53.53;102773.88;4933620;28;114691;-75
2022/04/30 06:39:19;;;;;;;12.07;5.15;;;;;;;11.19;53.75;102770.19;4931711;28;124068;-76
2022/04/30 06:41:46;;;;;;;9.90;5.25;;;;;;;11.32;53.54;102767.28;4929800;28;123752;-75
2022/04/30 06:44:13;;;;;;;10.95;5.80;;;;;;;11.42;53.51;102764.47;4944204;28;114558;-75
2022/04/30 06:46:40;;;;;;;13.20;4.82;;;;;;;11.54;53.33;102767.81;4912760;28;114748;-75
2022/04/30 06:49:08;;;;;;;9.35;5.00;;;;;;;11.66;53.46;102767.59;4944761;28;123170;-74
2022/04/30 06:51:35;;;;;;;10.93;5.13;;;;;;;11.82;53.35;102752.22;4927938;28;124137;-75
2022/04/30 06:59:38;;;;;;;10.68;4.45;;;;;;;12.30;52.82;102748.63;4932199;28;124816;-76
2022/04/30 07:02:07;;;;;;;7.30;3.78;;;;;;;12.48;52.89;102753.53;4944771;28;122884;-72
2022/04/30 07:04:34;;;;;;;7.80;4.32;;;;;;;12.66;52.36;102753.13;4928680;28;115139;-75
2022/04/30 07:07:02;;;;;;;7.43;4.65;;;;;;;12.84;52.55;102745.63;4944467;28;113708;-74
2022/04/30 07:09:32;;;;;;;7.57;3.88;;;;;;;13.03;51.96;102746.94;4935554;28;123436;-74
2022/04/30 07:12:01;;;;;;;8.02;4.00;;;;;;;13.20;51.51;102748.28;4929085;28;123785;-74
2022/04/30 07:14:28;;;;;;;5.75;4.10;;;;;;;13.34;51.46;102740.00;4944695;28;114193;-74
2022/04/30 07:16:55;;;;;;;6.68;3.60;;;;;;;13.49;51.04;102749.38;4945630;28;114414;-75
2022/04/30 07:19:22;;;;;;;6.35;3.85;;;;;;;13.63;51.15;102747.19;4945199;28;123847;-74
2022/04/30 07:21:49;;;;;;;8.13;3.35;;;;;;;13.80;50.69;102750.25;4929631;28;124091;-73
2022/04/30 07:24:16;;;;;;;7.38;3.50;;;;;;;13.95;50.17;102742.75;4929431;28;114459;-73
2022/04/30 07:26:43;;;;;;;5.50;3.55;;;;;;;14.08;49.86;102749.47;4929313;28;113990;-74
2022/04/30 07:29:11;;;;;;;5.60;2.97;;;;;;;14.19;49.64;102742.03;4929122;28;124657;-74
2022/04/30 07:31:38;;;;;;;5.13;3.38;;;;;;;14.32;49.38;102742.53;4928602;28;124088;-75
2022/04/30 07:34:09;;;;;;;6.82;3.40;;;;;;;14.47;49.45;102751.00;4944465;28;115774;-73
2022/04/30 07:36:37;;;;;;;6.88;2.80;;;;;;;14.62;48.83;102749.66;4944930;28;115237;-75
2022/04/30 07:39:04;;;;;;;4.72;2.88;;;;;;;14.74;48.65;102741.28;4945247;28;124028;-74
2022/04/30 07:41:31;;;;;;;3.25;2.22;;;;;;;14.85;48.31;102736.47;4930359;28;123655;-74
2022/04/30 07:43:59;;;;;;;6.07;2.83;;;;;;;14.96;47.75;102744.13;4945520;28;114863;-74
2022/04/30 07:46:26;;;;;;;6.03;2.70;;;;;;;15.03;47.44;102740.34;4945395;28;113913;-74
2022/04/30 07:49:17;;;;;;;6.47;3.13;;;;;;;15.09;47.53;102736.59;4914871;28;124241;-76
2022/04/30 07:51:58;;;;;;;3.97;2.42;;;;;;;15.19;47.33;102724.66;4950110;28;122903;-76
2022/04/30 07:54:25;;;;;;;4.10;2.33;;;;;;;15.27;46.82;102727.06;4945243;28;114530;-76
2022/04/30 07:56:57;;;;;;;4.82;2.60;;;;;;;15.34;46.93;102729.47;4945285;28;113113;-76
2022/04/30 07:59:24;;;;;;;4.82;2.60;;;;;;;15.45;46.47;102720.22;4928095;28;124670;-76
2022/04/30 08:01:52;;;;;;;5.15;3.08;;;;;;;15.53;46.13;102731.50;4929015;28;124426;-76
2022/04/30 08:04:20;;;;;;;4.68;2.55;;;;;;;15.60;46.11;102733.03;4928600;28;113798;-76
2022/04/30 08:06:47;;;;;;;4.40;2.35;;;;;;;15.72;46.02;102740.59;4934769;28;113851;-76
2022/04/30 08:09:14;;;;;;;4.18;2.80;;;;;;;15.82;45.63;102729.59;4935267;28;123102;-76
2022/04/30 08:11:41;;;;;;;6.47;3.05;;;;;;;15.92;45.89;102726.53;4930197;28;123979;-77
2022/04/30 08:14:09;;;;;;;5.70;2.67;;;;;;;16.06;45.47;102728.69;4929293;28;114127;-76
2022/04/30 08:16:36;;;;;;;4.75;2.75;;;;;;;16.18;45.53;102716.66;4929170;28;112825;-75
2022/04/30 08:19:03;;;;;;;6.20;2.92;;;;;;;16.29;45.52;102718.91;4944571;28;122981;-76
2022/04/30 08:21:30;;;;;;;3.53;2.70;;;;;;;16.38;45.14;102729.22;4929359;28;124354;-76
2022/04/30 08:23:57;;;;;;;6.32;3.17;;;;;;;16.43;44.97;102721.91;4932113;28;115229;-76
2022/04/30 08:26:24;;;;;;;8.13;3.22;;;;;;;16.50;44.82;102718.06;4950231;28;115380;-75
2022/04/30 08:28:51;;;;;;;6.35;3.17;;;;;;;16.57;44.85;102717.81;4957802;28;123369;-75
2022/04/30 08:31:18;;;;;;;5.53;3.00;;;;;;;16.62;45.16;102715.81;4930566;28;124441;-75
2022/04/30 08:33:46;;;;;;;3.95;2.50;;;;;;;16.70;44.40;102713.69;4948781;28;113250;-76
2022/04/30 08:36:14;;;;;;;4.55;2.95;;;;;;;16.76;44.49;102713.44;4947896;28;112815;-75
2022/04/30 08:38:41;;;;;;;6.15;3.28;;;;;;;16.82;44.19;102712.31;4940597;28;123904;-76
2022/04/30 08:41:10;;;;;;;4.22;2.78;;;;;;;16.82;43.76;102713.25;4929352;28;123917;-76
2022/04/30 08:43:41;;;;;;;5.60;2.75;;;;;;;16.80;43.37;102703.47;4928742;28;114061;-77
2022/04/30 08:46:08;;;;;;;7.40;3.13;;;;;;;16.72;43.30;102707.34;4937011;28;114151;-75
2022/04/30 08:48:37;;;;;;;4.65;3.00;;;;;;;16.61;43.41;102703.38;4930341;28;124181;-76
2022/04/30 08:51:04;;;;;;;7.40;3.60;;;;;;;16.53;43.59;102712.56;4934986;28;123728;-77
2022/04/30 08:53:31;;;;;;;6.75;3.50;;;;;;;16.40;43.56;102716.66;4944540;28;114242;-75
2022/04/30 08:55:58;;;;;;;5.32;3.30;;;;;;;16.31;43.78;102711.69;4944760;28;114620;-76
2022/04/30 08:58:25;;;;;;;5.45;3.85;;;;;;;16.25;43.70;102709.25;4917821;28;123725;-77
2022/04/30 09:00:53;;;;;;;5.32;3.40;;;;;;;16.21;43.77;102707.63;4930657;28;124044;-75
2022/04/30 09:03:21;;;;;;;6.50;3.60;;;;;;;16.15;43.54;102712.28;4929107;28;114268;-77
2022/04/30 09:05:48;;;;;;;6.93;3.70;;;;;;;16.09;43.61;102707.19;4914506;28;114284;-75
2022/04/30 09:08:16;;;;;;;5.80;3.60;;;;;;;16.01;43.85;102703.06;4947348;28;123963;-75
2022/04/30 09:10:44;;;;;;;6.68;3.42;;;;;;;15.98;43.68;102703.19;4947201;28;123411;-75
2022/04/30 09:13:16;;;;;;;9.15;3.83;;;;;;;15.98;43.86;102697.84;4933124;28;114896;-75
2022/04/30 09:15:45;;;;;;;4.43;3.40;;;;;;;16.07;44.00;102687.66;4931177;28;114745;-75
2022/04/30 09:18:14;;;;;;;5.13;3.25;;;;;;;16.20;43.67;102692.50;4948006;28;123376;-75
2022/04/30 09:20:49;;;;;;;4.68;2.92;;;;;;;16.28;43.59;102690.44;4933951;28;123718;-76
2022/04/30 09:23:32;;;;;;;6.07;2.90;;;;;;;16.37;43.10;102695.41;4932637;28;114515;-75
2022/04/30 09:26:03;;;;;;;5.13;3.03;;;;;;;16.39;43.13;102693.56;4915834;28;114706;-76
2022/04/30 09:28:33;;;;;;;4.65;3.20;;;;;;;16.41;43.25;102691.69;4933657;28;124444;-76
2022/04/30 09:31:13;;;;;;;8.35;3.25;;;;;;;16.41;43.23;102691.69;4934389;28;123145;-76
2022/04/30 09:33:55;;;;;;;7.38;3.50;;;;;;;16.43;43.28;102689.81;4948746;28;114641;-77
2022/04/30 09:39:12;;;;;;;5.50;2.95;;;;;;;16.45;42.82;102687.09;4934038;28;123899;-77
2022/04/30 09:41:39;;;;;;;6.40;3.60;;;;;;;16.44;42.94;102686.19;4933353;28;124648;-75
2022/04/30 09:44:08;;;;;;;4.30;3.30;;;;;;;16.43;43.01;102684.47;4915707;28;115073;-75
2022/04/30 09:46:39;;;;;;;7.07;3.53;;;;;;;16.42;43.20;102682.72;4932002;28;113649;-75
2022/04/30 09:54:42;;;;;;;5.68;3.03;;;;;;;16.42;42.98;102674.69;4932249;28;114244;-75
2022/04/30 09:57:14;;;;;;;6.03;3.28;;;;;;;16.38;42.96;102681.09;4947250;28;113578;-75
2022/04/30 09:59:43;;;;;;;5.57;3.22;;;;;;;16.33;42.87;102677.72;4947021;28;123428;-75
2022/04/30 10:02:13;;;;;;;4.57;3.25;;;;;;;16.28;43.16;102675.25;4915266;28;123785;-75
2022/04/30 10:04:43;;;;;;;7.88;3.40;;;;;;;16.27;43.22;102677.97;4932322;28;116508;-76
2022/04/30 10:07:11;;;;;;;5.65;3.40;;;;;;;16.27;43.34;102669.97;4931859;28;115544;-75
2022/04/30 10:09:44;;;;;;;4.95;3.25;;;;;;;16.27;43.39;102672.63;4931306;28;124088;-76
2022/04/30 10:12:17;;;;;;;6.82;3.22;;;;;;;16.24;43.17;102667.44;4929627;28;123797;-75
2022/04/30 10:14:51;;;;;;;;;;;;;;;16.18;43.31;102678.34;4947145;28;114013;-75
2022/04/30 10:17:22;;;;;;;6.78;3.38;;;;;;;16.13;43.29;102671.38;4932235;28;113671;-77
2022/04/30 10:19:59;;;;;;;4.47;3.38;;;;;;;16.07;43.25;102670.75;4931133;28;124410;-76
2022/04/30 10:22:27;;;;;;;6.00;3.30;;;;;;;16.04;43.43;102661.03;4946831;28;123512;-77
2022/04/30 10:24:56;;;;;;;5.82;3.30;;;;;;;16.05;43.58;102667.25;4930604;28;114279;-76
2022/04/30 10:27:36;;;;;;;5.63;3.85;;;;;;;16.07;43.65;102660.06;4931487;28;112809;-76
2022/04/30 10:30:05;;;;;;;6.57;3.90;;;;;;;16.08;43.65;102661.78;4940479;28;124636;-76
2022/04/30 10:32:34;;;;;;;5.90;3.45;;;;;;;16.11;43.94;102657.19;4933027;28;123811;-76
2022/04/30 10:35:04;;;;;;;5.57;3.70;;;;;;;16.17;43.66;102652.56;4951091;28;115006;-76
2022/04/30 10:37:32;;;;;;;6.18;3.30;;;;;;;16.22;43.77;102655.91;4932934;28;113419;-76
2022/04/30 10:40:01;;;;;;;5.85;3.63;;;;;;;16.28;43.79;102642.31;4932569;28;123888;-76
2022/04/30 10:42:29;;;;;;;6.97;3.65;;;;;;;16.35;43.81;102644.66;4950320;28;123926;-76
2022/04/30 10:44:57;;;;;;;7.72;3.42;;;;;;;16.45;43.77;102639.81;4933378;28;114656;-77
2022/04/30 10:47:24;;;;;;;6.93;3.38;;;;;;;16.54;43.43;102639.44;4950978;28;114478;-75
2022/04/30 10:49:51;;;;;;;7.45;3.75;;;;;;;16.65;43.28;102638.09;4950234;28;125118;-76
2022/04/30 10:52:24;;;;;;;5.40;3.55;;;;;;;16.75;43.64;102636.78;4950318;28;124014;-77
2022/04/30 10:54:54;;;;;;;5.88;3.22;;;;;;;16.90;43.72;102632.63;4932031;28;115567;-77
2022/04/30 10:57:22;;;;;;;7.80;3.35;;;;;;;17.14;43.95;102628.03;4932778;28;114944;-76
2022/04/30 10:59:57;;;;;;;7.00;3.72;;;;;;;17.41;44.03;102628.56;4948904;28;124264;-76
2022/04/30 11:02:28;;;;;;;;;;;;;;;17.66;44.32;102622.94;4950460;28;125131;-76
2022/04/30 11:04:56;;;;;;;5.72;3.10;;;;;;;17.92;43.44;102615.53;4931365;28;115329;-76
2022/04/30 11:07:26;;;;;;;7.40;3.65;;;;;;;18.09;43.10;102615.59;4931702;28;113635;-77
2022/04/30 11:09:53;;;;;;;7.82;3.80;;;;;;;18.18;42.87;102611.59;4930950;28;123025;-77
2022/04/30 11:12:20;;;;;;;4.68;3.13;;;;;;;18.22;42.22;102609.63;4945600;28;124196;-77
2022/04/30 11:14:48;;;;;;;4.90;3.50;;;;;;;18.28;41.67;102612.00;4941918;28;114379;-77
2022/04/30 11:17:15;;;;;;;6.70;3.15;;;;;;;18.35;41.64;102602.72;4945624;28;113889;-77
2022/04/30 11:19:42;;;;;;;6.70;3.53;;;;;;;18.47;41.46;102606.59;4925425;28;123145;-78
2022/04/30 11:22:11;;;;;;;4.70;3.50;;;;;;;18.53;41.22;102597.38;4926620;28;123476;-77
2022/04/30 11:24:41;;;;;;;7.00;3.28;;;;;;;18.54;40.81;102585.69;4939282;28;114200;-77
2022/04/30 11:27:09;;;;;;;5.22;3.40;;;;;;;18.61;41.04;102587.09;4931085;28;115394;-77
2022/04/30 11:29:47;;;;;;;5.60;3.15;;;;;;;18.67;40.93;102587.66;4913785;28;124277;-77
2022/04/30 11:32:22;;;;;;;5.70;3.67;;;;;;;18.68;40.55;102588.53;4930174;28;124381;-76
2022/04/30 11:34:52;;;;;;;8.63;3.38;;;;;;;18.62;40.49;102594.22;4914109;28;114256;-76
2022/04/30 11:37:20;;;;;;;5.88;3.08;;;;;;;18.56;40.23;102589.16;4931191;28;114871;-76
2022/04/30 11:39:47;;;;;;;6.63;3.30;;;;;;;18.49;39.91;102589.47;4930404;28;123125;-76
2022/04/30 11:42:14;;;;;;;8.18;3.35;;;;;;;18.43;39.87;102584.41;4945341;28;122836;-77
2022/04/30 11:44:43;;;;;;;6.65;3.22;;;;;;;18.36;39.68;102576.75;4929085;28;115100;-76
2022/04/30 11:47:11;;;;;;;6.32;3.15;;;;;;;18.25;39.63;102577.28;4931969;28;96798;-76
2022/04/30 11:49:38;;;;;;;6.78;3.10;;;;;;;18.18;39.73;102578.56;4928265;28;123657;-77
2022/04/30 11:52:07;;;;;;;5.53;3.30;;;;;;;18.12;39.71;102573.47;4928630;28;123394;-76
2022/04/30 11:54:38;;;;;;;5.45;3.13;;;;;;;18.03;39.49;102578.34;4946377;28;114688;-76
2022/04/30 11:57:07;;;;;;;6.65;3.63;;;;;;;17.91;39.60;102581.63;4929028;28;113545;-76
2022/04/30 11:59:39;;;;;;;4.95;3.08;;;;;;;17.79;39.56;102572.31;4913220;28;123879;-76
2022/04/30 12:02:09;;;;;;;5.10;3.10;;;;;;;17.69;39.64;102577.25;4930308;28;124253;-76
2022/04/30 12:04:42;;;;;;;5.03;3.60;;;;;;;17.60;39.64;102577.69;4946861;28;114084;-77